Time;durP1;ratioP1;P1;durP2;ratioP2;P2;SDS_P1;SDS_P2;PMS_P1;PMS_P2;Temp;Humidity;BMP_temperature;BMP_pressure;BME280_temperature;BME280_humidity;BME280_pressure;Samples;Min_cycle;Max_cycle;Signal;HPM_P1;HPM_P2
2022/02/28 00:02:27;;;;;;;7.18;2.25;;;;;;;;;;5070514;28;20063;-57
2022/02/28 00:04:53;;;;;;;5.40;2.30;;;;;;;;;;5053745;28;20075;-58
2022/02/28 00:07:20;;;;;;;6.50;2.05;;;;;;;;;;5050149;28;20057;-57
2022/02/28 00:09:48;;;;;;;6.00;2.35;;;;;;;;;;5044374;28;20057;-56
2022/02/28 00:12:16;;;;;;;8.25;2.60;;;;;;;;;;5050394;28;20137;-58
2022/02/28 00:14:43;;;;;;;7.00;2.25;;;;;;;;;;5065724;28;20451;-59
2022/02/28 00:17:10;;;;;;;7.20;2.42;;;;;;;;;;5048335;28;20051;-56
2022/02/28 00:19:37;;;;;;;7.85;1.90;;;;;;;;;;5052372;28;20406;-58
2022/02/28 00:22:03;;;;;;;9.68;2.40;;;;;;;;;;5045370;28;20052;-58
2022/02/28 00:24:30;;;;;;;5.97;2.20;;;;;;;;;;5049774;28;20130;-58
2022/02/28 00:26:58;;;;;;;7.70;2.42;;;;;;;;;;5043809;28;20557;-53
2022/02/28 00:29:24;;;;;;;7.85;1.90;;;;;;;;;;5049996;28;20068;-58
2022/02/28 00:31:51;;;;;;;7.05;2.40;;;;;;;;;;5044736;28;20081;-57
2022/02/28 00:34:17;;;;;;;7.75;2.33;;;;;;;;;;5047753;28;20045;-59
2022/02/28 00:36:44;;;;;;;7.15;2.50;;;;;;;;;;5049702;28;20136;-55
2022/02/28 00:39:11;;;;;;;7.75;2.25;;;;;;;;;;5042573;28;20056;-60
2022/02/28 00:41:37;;;;;;;6.40;1.70;;;;;;;;;;5049597;28;20060;-57
2022/02/28 00:44:05;;;;;;;4.90;2.15;;;;;;;;;;5043198;28;20059;-58
2022/02/28 00:46:32;;;;;;;3.72;1.65;;;;;;;;;;5048621;28;20464;-56
2022/02/28 00:48:59;;;;;;;6.20;2.08;;;;;;;;;;5043005;28;20072;-56
2022/02/28 00:51:25;;;;;;;7.15;2.30;;;;;;;;;;5048441;28;20048;-60
2022/02/28 00:53:52;;;;;;;6.90;2.00;;;;;;;;;;5047575;28;20284;-55
2022/02/28 00:56:20;;;;;;;7.85;2.15;;;;;;;;;;5043053;28;20305;-57
2022/02/28 00:58:46;;;;;;;9.10;2.42;;;;;;;;;;5047017;28;20118;-55
2022/02/28 01:01:15;;;;;;;10.18;2.15;;;;;;;;;;5042905;28;20124;-58
2022/02/28 01:03:41;;;;;;;6.90;2.03;;;;;;;;;;5072166;28;20086;-61
2022/02/28 01:06:08;;;;;;;6.45;1.90;;;;;;;;;;5072517;28;20086;-59
2022/02/28 01:08:36;;;;;;;6.18;2.03;;;;;;;;;;5065603;28;20044;-56
2022/02/28 01:11:03;;;;;;;4.55;2.10;;;;;;;;;;5064826;28;20147;-57
2022/02/28 01:13:29;;;;;;;7.25;1.88;;;;;;;;;;5065474;28;20190;-57
2022/02/28 01:15:57;;;;;;;5.05;1.77;;;;;;;;;;5067533;28;20113;-56
2022/02/28 01:18:25;;;;;;;6.60;2.03;;;;;;;;;;5077429;28;20097;-58
2022/02/28 01:20:53;;;;;;;5.40;1.97;;;;;;;;;;5085891;28;20064;-59
2022/02/28 01:23:19;;;;;;;3.33;1.50;;;;;;;;;;5079763;28;20059;-59
2022/02/28 01:25:46;;;;;;;4.75;1.73;;;;;;;;;;5072406;28;20102;-56
2022/02/28 01:28:12;;;;;;;5.00;1.98;;;;;;;;;;5072234;28;20076;-57
2022/02/28 01:30:39;;;;;;;5.47;2.33;;;;;;;;;;5085742;28;20056;-57
2022/02/28 01:33:06;;;;;;;5.38;1.80;;;;;;;;;;5083367;28;20059;-56
2022/02/28 01:35:34;;;;;;;10.15;2.05;;;;;;;;;;5090275;28;20059;-55
2022/02/28 01:38:01;;;;;;;5.38;1.90;;;;;;;;;;5077181;28;20060;-57
2022/02/28 01:40:28;;;;;;;8.05;2.00;;;;;;;;;;5069560;28;20137;-59
2022/02/28 01:42:55;;;;;;;5.03;2.00;;;;;;;;;;5068461;28;20101;-60
2022/02/28 01:45:23;;;;;;;5.88;2.13;;;;;;;;;;5090714;28;20091;-60
2022/02/28 01:47:50;;;;;;;5.25;2.08;;;;;;;;;;5087046;28;20131;-57
2022/02/28 01:50:18;;;;;;;4.18;2.00;;;;;;;;;;5092026;28;20461;-60
2022/02/28 01:52:48;;;;;;;5.57;1.70;;;;;;;;;;5093320;28;20052;-57
2022/02/28 01:55:15;;;;;;;5.25;1.98;;;;;;;;;;5068131;28;20376;-57
2022/02/28 01:57:42;;;;;;;4.90;2.03;;;;;;;;;;5069181;28;20052;-59
2022/02/28 02:00:10;;;;;;;5.70;1.95;;;;;;;;;;5063401;28;20060;-61
2022/02/28 02:02:37;;;;;;;8.02;2.42;;;;;;;;;;5069243;28;20133;-59
2022/02/28 02:05:03;;;;;;;5.72;1.92;;;;;;;;;;5080137;28;20048;-57
2022/02/28 02:07:31;;;;;;;4.40;1.88;;;;;;;;;;5089176;28;20085;-57
2022/02/28 02:09:59;;;;;;;6.30;1.80;;;;;;;;;;5082856;28;20055;-56
2022/02/28 02:12:26;;;;;;;6.72;2.20;;;;;;;;;;5088833;28;20054;-51
2022/02/28 02:14:53;;;;;;;4.65;1.83;;;;;;;;;;5082408;28;20052;-58
2022/02/28 02:17:22;;;;;;;5.28;1.80;;;;;;;;;;5088640;28;20052;-57
2022/02/28 02:19:48;;;;;;;6.97;2.22;;;;;;;;;;5074264;28;20053;-54
2022/02/28 02:22:20;;;;;;;5.40;2.13;;;;;;;;;;5068837;28;20116;-58
2022/02/28 02:24:46;;;;;;;4.75;1.90;;;;;;;;;;5064764;28;20052;-58
2022/02/28 02:27:14;;;;;;;5.50;1.77;;;;;;;;;;5069054;28;20132;-57
2022/02/28 02:29:41;;;;;;;4.15;1.52;;;;;;;;;;5067409;28;20071;-58
2022/02/28 02:32:08;;;;;;;5.38;2.47;;;;;;;;;;5088992;28;20071;-58
2022/02/28 02:34:35;;;;;;;6.28;2.25;;;;;;;;;;5082663;28;20087;-57
2022/02/28 02:37:02;;;;;;;5.22;1.77;;;;;;;;;;5088512;28;20056;-58
2022/02/28 02:39:30;;;;;;;7.88;1.77;;;;;;;;;;5068007;28;20063;-52
2022/02/28 02:41:56;;;;;;;8.90;2.08;;;;;;;;;;5080563;28;20207;-58
2022/02/28 02:44:23;;;;;;;4.15;1.98;;;;;;;;;;5088975;28;20059;-55
2022/02/28 02:46:51;;;;;;;8.38;2.05;;;;;;;;;;5083104;28;20051;-59
2022/02/28 02:49:18;;;;;;;5.40;1.88;;;;;;;;;;5088326;28;20066;-57
2022/02/28 02:51:44;;;;;;;11.07;2.17;;;;;;;;;;5069799;28;20163;-58
2022/02/28 02:54:11;;;;;;;6.68;2.05;;;;;;;;;;5088203;28;20075;-57
2022/02/28 02:56:39;;;;;;;5.18;2.08;;;;;;;;;;5071099;28;20246;-58
2022/02/28 02:59:06;;;;;;;4.90;1.90;;;;;;;;;;5068220;28;20048;-56
2022/02/28 03:01:32;;;;;;;6.55;2.05;;;;;;;;;;5063220;28;20113;-57
2022/02/28 03:03:59;;;;;;;5.15;2.10;;;;;;;;;;5067998;28;20115;-56
2022/02/28 03:06:26;;;;;;;5.38;1.63;;;;;;;;;;5062745;28;20059;-57
2022/02/28 03:08:52;;;;;;;5.28;2.00;;;;;;;;;;5067228;28;20106;-59
2022/02/28 03:11:19;;;;;;;7.30;1.95;;;;;;;;;;5067754;28;20056;-59
2022/02/28 03:13:47;;;;;;;8.93;1.98;;;;;;;;;;5089015;28;20047;-59
2022/02/28 03:16:15;;;;;;;4.03;1.63;;;;;;;;;;5085364;28;20054;-59
2022/02/28 03:18:41;;;;;;;4.70;1.70;;;;;;;;;;5091111;28;20114;-60
2022/02/28 03:21:08;;;;;;;6.28;2.17;;;;;;;;;;5087889;28;20123;-61
2022/02/28 03:23:34;;;;;;;5.70;2.28;;;;;;;;;;5079498;28;20166;-58
2022/02/28 03:26:01;;;;;;;4.60;2.03;;;;;;;;;;5087921;28;20051;-58
2022/02/28 03:28:28;;;;;;;5.03;1.83;;;;;;;;;;5064647;28;20062;-61
2022/02/28 03:30:55;;;;;;;8.68;2.10;;;;;;;;;;5081063;28;20056;-61
2022/02/28 03:33:22;;;;;;;7.17;2.03;;;;;;;;;;5067517;28;20106;-61
2022/02/28 03:35:49;;;;;;;4.57;2.00;;;;;;;;;;5067449;28;20291;-58
2022/02/28 03:38:15;;;;;;;8.68;2.67;;;;;;;;;;5061658;28;20074;-59
2022/02/28 03:40:44;;;;;;;4.88;1.90;;;;;;;;;;5065882;28;20084;-54
2022/02/28 03:43:11;;;;;;;5.10;1.88;;;;;;;;;;5060842;28;20080;-59
2022/02/28 03:45:37;;;;;;;5.18;1.88;;;;;;;;;;5067509;28;20121;-57
2022/02/28 03:48:06;;;;;;;5.32;1.80;;;;;;;;;;5061607;28;20076;-62
2022/02/28 03:50:33;;;;;;;5.57;2.00;;;;;;;;;;5066906;28;20130;-60
2022/02/28 03:52:59;;;;;;;7.93;2.15;;;;;;;;;;5062397;28;20126;-55
2022/02/28 03:55:26;;;;;;;7.97;2.00;;;;;;;;;;5065914;28;20048;-55
2022/02/28 03:57:52;;;;;;;7.00;2.17;;;;;;;;;;5064022;28;20042;-55
2022/02/28 04:00:19;;;;;;;5.70;1.98;;;;;;;;;;5086539;28;20063;-60
2022/02/28 04:02:46;;;;;;;6.43;2.10;;;;;;;;;;5086612;28;20117;-56
2022/02/28 04:05:16;;;;;;;4.78;1.75;;;;;;;;;;5084304;28;20095;-54
2022/02/28 04:07:43;;;;;;;5.25;2.15;;;;;;;;;;5086767;28;20052;-56
2022/02/28 04:10:10;;;;;;;5.50;1.92;;;;;;;;;;5081167;28;20058;-55
2022/02/28 04:12:37;;;;;;;5.00;2.00;;;;;;;;;;5088486;28;20060;-57
2022/02/28 04:15:03;;;;;;;10.13;2.33;;;;;;;;;;5081309;28;20052;-60
2022/02/28 04:17:30;;;;;;;7.15;2.42;;;;;;;;;;5086328;28;20051;-58
2022/02/28 04:19:57;;;;;;;6.22;2.47;;;;;;;;;;5071434;28;20060;-58
2022/02/28 04:22:25;;;;;;;6.50;2.00;;;;;;;;;;5069705;28;20129;-58
2022/02/28 04:24:51;;;;;;;6.10;1.92;;;;;;;;;;5064927;28;20062;-60
2022/02/28 04:27:19;;;;;;;8.40;2.10;;;;;;;;;;5069811;28;20135;-58
2022/02/28 04:29:45;;;;;;;8.32;2.05;;;;;;;;;;5068073;28;20181;-54
2022/02/28 04:32:12;;;;;;;6.07;2.10;;;;;;;;;;5084634;28;20075;-57
2022/02/28 04:34:39;;;;;;;8.07;2.40;;;;;;;;;;5081549;28;20109;-54
2022/02/28 04:37:05;;;;;;;6.20;1.90;;;;;;;;;;5086381;28;20143;-58
2022/02/28 04:39:33;;;;;;;5.32;1.88;;;;;;;;;;5081234;28;21413;-58
2022/02/28 04:42:00;;;;;;;7.22;2.22;;;;;;;;;;5087761;28;20139;-56
2022/02/28 04:44:26;;;;;;;6.53;2.42;;;;;;;;;;5084291;28;20055;-54
2022/02/28 04:46:56;;;;;;;10.98;2.03;;;;;;;;;;5087190;28;20055;-61
2022/02/28 04:49:23;;;;;;;6.43;2.25;;;;;;;;;;5086401;28;20063;-59
2022/02/28 04:51:50;;;;;;;7.68;2.58;;;;;;;;;;5080195;28;20059;-59
2022/02/28 04:54:17;;;;;;;5.13;1.90;;;;;;;;;;5086239;28;20124;-62
2022/02/28 04:56:45;;;;;;;9.27;2.28;;;;;;;;;;5068249;28;20093;-55
2022/02/28 04:59:11;;;;;;;7.53;2.28;;;;;;;;;;5069189;28;20486;-61
2022/02/28 05:01:38;;;;;;;5.70;1.98;;;;;;;;;;5064550;28;20412;-57
2022/02/28 05:04:04;;;;;;;7.40;2.63;;;;;;;;;;5069455;28;20052;-60
2022/02/28 05:06:32;;;;;;;9.30;2.25;;;;;;;;;;5070679;28;20163;-56
2022/02/28 05:08:59;;;;;;;6.47;1.95;;;;;;;;;;5102951;28;20109;-61
2022/02/28 05:11:25;;;;;;;5.75;2.20;;;;;;;;;;5079537;28;20084;-57
2022/02/28 05:13:53;;;;;;;5.93;2.33;;;;;;;;;;5086292;28;20101;-59
2022/02/28 05:16:20;;;;;;;4.40;1.80;;;;;;;;;;5080593;28;20170;-57
2022/02/28 05:18:46;;;;;;;5.85;2.15;;;;;;;;;;5085028;28;20055;-60
2022/02/28 05:21:14;;;;;;;10.00;2.80;;;;;;;;;;5063713;28;20044;-57
2022/02/28 05:23:40;;;;;;;5.63;2.10;;;;;;;;;;5085671;28;20063;-62
2022/02/28 05:26:07;;;;;;;5.00;2.15;;;;;;;;;;5081407;28;20060;-60
2022/02/28 05:28:34;;;;;;;6.50;2.03;;;;;;;;;;5081457;28;20494;-59
2022/02/28 05:31:02;;;;;;;5.28;2.33;;;;;;;;;;5085115;28;20051;-60
2022/02/28 05:33:28;;;;;;;5.38;2.30;;;;;;;;;;5062918;28;20122;-58
2022/02/28 05:35:55;;;;;;;5.97;1.67;;;;;;;;;;5069085;28;20056;-61
2022/02/28 05:38:21;;;;;;;5.65;1.92;;;;;;;;;;5075642;28;20109;-57
2022/02/28 05:40:50;;;;;;;8.05;2.60;;;;;;;;;;5086387;28;20106;-61
2022/02/28 05:43:16;;;;;;;;;;;;;;;;;;5080368;28;20058;-61
2022/02/28 05:45:43;;;;;;;5.53;1.90;;;;;;;;;;5102530;28;19924;-62
2022/02/28 05:48:11;;;;;;;6.47;2.40;;;;;;;;;;5072402;28;20112;-61
2022/02/28 05:50:37;;;;;;;5.95;1.98;;;;;;;;;;5069295;28;20505;-60
2022/02/28 05:53:04;;;;;;;5.80;2.30;;;;;;;;;;5068427;28;20163;-61
2022/02/28 05:55:31;;;;;;;8.48;2.63;;;;;;;;;;5086563;28;20501;-59
2022/02/28 05:57:57;;;;;;;7.28;2.58;;;;;;;;;;5086170;28;20047;-60
2022/02/28 06:00:24;;;;;;;5.97;2.40;;;;;;;;;;5080422;28;20082;-59
2022/02/28 06:02:51;;;;;;;7.65;2.50;;;;;;;;;;5076314;28;20047;-59
2022/02/28 06:05:19;;;;;;;9.65;2.25;;;;;;;;;;5080810;28;20121;-60
2022/02/28 06:07:46;;;;;;;5.85;1.88;;;;;;;;;;5077650;28;20084;-56
2022/02/28 06:10:12;;;;;;;6.25;2.28;;;;;;;;;;5086318;28;20065;-58
2022/02/28 06:12:39;;;;;;;4.88;2.38;;;;;;;;;;5095170;28;20048;-61
2022/02/28 06:15:07;;;;;;;6.88;2.40;;;;;;;;;;5078820;28;20060;-62
2022/02/28 06:17:33;;;;;;;5.90;2.08;;;;;;;;;;5087691;28;20056;-59
2022/02/28 06:20:00;;;;;;;8.23;3.05;;;;;;;;;;5087270;28;20051;-57
2022/02/28 06:22:28;;;;;;;6.88;2.35;;;;;;;;;;5086359;28;20060;-56
2022/02/28 06:24:54;;;;;;;7.40;2.23;;;;;;;;;;5079873;28;20100;-65
2022/02/28 06:27:24;;;;;;;8.48;2.92;;;;;;;;;;5079153;28;20307;-56
2022/02/28 06:29:50;;;;;;;7.20;2.70;;;;;;;;;;5076010;28;20052;-55
2022/02/28 06:32:17;;;;;;;5.50;2.30;;;;;;;;;;5085059;28;20084;-53
2022/02/28 06:34:43;;;;;;;6.05;2.75;;;;;;;;;;5077720;28;20079;-54
2022/02/28 06:37:13;;;;;;;10.95;2.70;;;;;;;;;;5076496;28;20056;-57
2022/02/28 06:39:41;;;;;;;4.65;1.85;;;;;;;;;;5079614;28;20459;-56
2022/02/28 06:42:09;;;;;;;6.57;2.70;;;;;;;;;;5084817;28;20071;-52
2022/02/28 06:44:36;;;;;;;4.50;2.10;;;;;;;;;;5077796;28;20040;-57
2022/02/28 06:47:03;;;;;;;15.05;3.95;;;;;;;;;;5085371;28;20135;-54
2022/02/28 06:49:29;;;;;;;8.05;3.10;;;;;;;;;;5082351;28;20075;-50
2022/02/28 06:51:55;;;;;;;6.75;2.72;;;;;;;;;;5088161;28;20040;-54
2022/02/28 06:54:22;;;;;;;5.10;1.83;;;;;;;;;;5087786;28;22258;-56
2022/02/28 06:56:50;;;;;;;10.30;2.60;;;;;;;;;;5081124;28;20125;-52
2022/02/28 06:59:17;;;;;;;11.20;2.63;;;;;;;;;;5086144;28;20551;-57
2022/02/28 07:01:43;;;;;;;5.03;2.15;;;;;;;;;;5081435;28;20060;-58
2022/02/28 07:04:11;;;;;;;7.15;2.80;;;;;;;;;;5087767;28;20364;-53
2022/02/28 07:06:38;;;;;;;7.75;2.58;;;;;;;;;;5087748;28;20059;-55
2022/02/28 07:09:07;;;;;;;7.25;2.35;;;;;;;;;;5088751;28;20072;-57
2022/02/28 07:11:34;;;;;;;6.55;2.40;;;;;;;;;;5081755;28;20117;-55
2022/02/28 07:14:02;;;;;;;6.95;2.65;;;;;;;;;;5087783;28;20137;-58
2022/02/28 07:16:29;;;;;;;7.25;2.70;;;;;;;;;;5075580;28;20060;-56
2022/02/28 07:18:55;;;;;;;10.65;2.55;;;;;;;;;;5087709;28;20134;-53
2022/02/28 07:21:22;;;;;;;7.43;2.70;;;;;;;;;;5078288;28;20076;-55
2022/02/28 07:23:48;;;;;;;6.90;2.03;;;;;;;;;;5071077;28;20101;-54
2022/02/28 07:26:17;;;;;;;9.23;3.45;;;;;;;;;;5066226;28;20044;-55
2022/02/28 07:28:43;;;;;;;7.38;2.58;;;;;;;;;;5054188;28;20056;-54
2022/02/28 07:31:11;;;;;;;7.75;2.17;;;;;;;;;;5067563;28;20062;-55
2022/02/28 07:33:37;;;;;;;6.43;2.77;;;;;;;;;;5088013;28;20109;-56
2022/02/28 07:36:06;;;;;;;6.95;2.80;;;;;;;;;;5087512;28;20048;-53
2022/02/28 07:38:33;;;;;;;6.57;2.42;;;;;;;;;;5087944;28;20108;-56
2022/02/28 07:40:59;;;;;;;8.80;3.08;;;;;;;;;;5089894;28;20115;-60
2022/02/28 07:43:26;;;;;;;5.80;2.20;;;;;;;;;;5082969;28;20121;-56
2022/02/28 07:45:53;;;;;;;7.47;2.70;;;;;;;;;;5087841;28;20074;-60
2022/02/28 07:48:20;;;;;;;5.30;2.10;;;;;;;;;;5080961;28;20140;-59
2022/02/28 07:50:47;;;;;;;7.17;2.83;;;;;;;;;;5104793;28;20052;-53
2022/02/28 07:53:13;;;;;;;6.00;2.25;;;;;;;;;;5063542;28;20394;-54
2022/02/28 07:55:42;;;;;;;6.00;2.03;;;;;;;;;;5069961;28;20062;-53
2022/02/28 07:58:09;;;;;;;6.25;2.40;;;;;;;;;;5064345;28;20171;-53
2022/02/28 08:00:35;;;;;;;8.15;2.83;;;;;;;;;;5069686;28;20064;-55
2022/02/28 08:03:02;;;;;;;5.57;2.33;;;;;;;;;;5065096;28;20040;-52
2022/02/28 08:05:30;;;;;;;15.18;3.20;;;;;;;;;;5070205;28;20055;-50
2022/02/28 08:07:56;;;;;;;4.80;2.22;;;;;;;;;;5066612;28;20063;-57
2022/02/28 08:10:23;;;;;;;6.40;2.47;;;;;;;;;;5080495;28;20200;-56
2022/02/28 08:12:49;;;;;;;6.00;2.33;;;;;;;;;;5080454;28;20056;-55
2022/02/28 08:15:17;;;;;;;9.77;3.13;;;;;;;;;;5086336;28;20063;-55
2022/02/28 08:17:45;;;;;;;5.13;2.33;;;;;;;;;;5081216;28;20315;-55
2022/02/28 08:20:11;;;;;;;7.10;2.72;;;;;;;;;;5067953;28;20071;-56
2022/02/28 08:22:39;;;;;;;12.43;4.38;;;;;;;;;;5069667;28;20048;-59
2022/02/28 08:25:15;;;;;;;5.60;2.13;;;;;;;;;;5064446;28;20056;-52
2022/02/28 08:27:41;;;;;;;5.85;2.40;;;;;;;;;;5068978;28;20312;-54
2022/02/28 08:30:08;;;;;;;6.45;2.83;;;;;;;;;;5064021;28;20071;-59
2022/02/28 08:32:35;;;;;;;8.55;3.17;;;;;;;;;;5069409;28;20082;-59
2022/02/28 08:35:01;;;;;;;5.93;2.53;;;;;;;;;;5065601;28;20087;-49
2022/02/28 08:37:28;;;;;;;6.78;3.17;;;;;;;;;;5069542;28;20048;-53
2022/02/28 08:39:57;;;;;;;10.23;3.65;;;;;;;;;;5071506;28;20058;-54
2022/02/28 08:42:27;;;;;;;9.68;3.45;;;;;;;;;;5085773;28;20052;-56
2022/02/28 08:44:55;;;;;;;7.88;3.22;;;;;;;;;;5080461;28;20056;-50
2022/02/28 08:47:25;;;;;;;7.82;3.00;;;;;;;;;;5072487;28;20056;-55
2022/02/28 08:49:52;;;;;;;10.23;3.10;;;;;;;;;;5063924;28;20052;-59
2022/02/28 08:52:18;;;;;;;8.82;3.13;;;;;;;;;;5069554;28;20093;-56
2022/02/28 08:54:45;;;;;;;10.48;2.88;;;;;;;;;;5063861;28;20076;-56
2022/02/28 08:57:17;;;;;;;10.52;3.15;;;;;;;;;;5070377;28;20051;-55
2022/02/28 08:59:43;;;;;;;8.73;3.40;;;;;;;;;;5062184;28;20101;-58
2022/02/28 09:02:11;;;;;;;8.15;3.40;;;;;;;;;;5086498;28;20040;-56
2022/02/28 09:04:37;;;;;;;8.90;3.05;;;;;;;;;;5081000;28;20043;-57
2022/02/28 09:07:06;;;;;;;8.02;2.92;;;;;;;;;;5088439;28;20054;-58
2022/02/28 09:09:32;;;;;;;;;;;;;;;;;;5089005;28;20048;-59
2022/02/28 09:11:59;;;;;;;5.88;2.20;;;;;;;;;;5096623;28;20082;-57
2022/02/28 09:14:27;;;;;;;6.88;3.33;;;;;;;;;;5085722;28;20113;-60
2022/02/28 09:16:54;;;;;;;6.28;2.58;;;;;;;;;;5063845;28;20044;-59
2022/02/28 09:19:20;;;;;;;9.75;3.15;;;;;;;;;;5065241;28;20045;-58
2022/02/28 09:21:47;;;;;;;5.93;2.45;;;;;;;;;;5073263;28;20044;-59
2022/02/28 09:24:13;;;;;;;5.93;2.55;;;;;;;;;;5083589;28;20056;-60
2022/02/28 09:26:40;;;;;;;7.88;2.90;;;;;;;;;;5068697;28;20049;-58
2022/02/28 09:29:07;;;;;;;8.63;3.38;;;;;;;;;;5064912;28;20060;-58
2022/02/28 09:31:35;;;;;;;9.20;3.90;;;;;;;;;;5060113;28;20120;-57
2022/02/28 09:34:02;;;;;;;10.25;3.83;;;;;;;;;;5065540;28;20056;-59
2022/02/28 09:36:30;;;;;;;8.45;3.22;;;;;;;;;;5050592;28;20056;-59
2022/02/28 09:38:58;;;;;;;9.07;3.47;;;;;;;;;;5065592;28;20056;-55
2022/02/28 09:41:24;;;;;;;8.98;3.05;;;;;;;;;;5063668;28;20159;-56
2022/02/28 09:43:52;;;;;;;10.07;3.40;;;;;;;;;;5086046;28;20059;-57
2022/02/28 09:46:19;;;;;;;8.03;3.50;;;;;;;;;;5080464;28;20578;-59
2022/02/28 09:48:48;;;;;;;9.32;3.28;;;;;;;;;;5084533;28;20310;-61
2022/02/28 09:51:14;;;;;;;9.38;3.63;;;;;;;;;;5103003;28;20084;-58
2022/02/28 09:53:41;;;;;;;10.82;3.60;;;;;;;;;;5062019;28;20124;-60
2022/02/28 09:56:08;;;;;;;7.97;2.97;;;;;;;;;;5068956;28;20080;-57
2022/02/28 09:58:35;;;;;;;8.80;3.47;;;;;;;;;;5064073;28;20139;-60
2022/02/28 10:01:01;;;;;;;7.10;2.75;;;;;;;;;;5070282;28;20106;-58
2022/02/28 10:03:28;;;;;;;9.90;3.03;;;;;;;;;;5078360;28;20121;-62
2022/02/28 10:05:59;;;;;;;6.68;2.88;;;;;;;;;;5090056;28;20063;-59
2022/02/28 10:08:26;;;;;;;6.35;2.67;;;;;;;;;;5072944;28;20050;-57
2022/02/28 10:10:53;;;;;;;8.98;3.38;;;;;;;;;;5070426;28;20059;-54
2022/02/28 10:13:26;;;;;;;7.50;2.92;;;;;;;;;;5065498;28;20044;-59
2022/02/28 10:15:56;;;;;;;12.13;3.55;;;;;;;;;;5069628;28;20048;-58
2022/02/28 10:18:22;;;;;;;9.23;3.00;;;;;;;;;;5072026;28;20040;-58
2022/02/28 10:20:48;;;;;;;7.40;3.30;;;;;;;;;;5091079;28;20056;-60
2022/02/28 10:23:17;;;;;;;7.93;3.20;;;;;;;;;;5078753;28;20075;-59
2022/02/28 10:25:44;;;;;;;4.53;1.85;;;;;;;;;;5069444;28;20052;-55
2022/02/28 10:28:11;;;;;;;9.50;3.22;;;;;;;;;;5067263;28;20076;-60
2022/02/28 10:30:38;;;;;;;9.63;3.58;;;;;;;;;;5061358;28;20076;-60
2022/02/28 10:33:11;;;;;;;13.73;3.38;;;;;;;;;;5064767;28;20056;-59
2022/02/28 10:38:27;;;;;;;12.23;3.53;;;;;;;;;;5066089;28;20044;-56
2022/02/28 10:40:54;;;;;;;7.83;3.03;;;;;;;;;;5106401;28;20055;-57
2022/02/28 10:43:28;;;;;;;8.45;2.90;;;;;;;;;;5089185;28;20306;-56
2022/02/28 10:45:54;;;;;;;10.18;3.00;;;;;;;;;;5068132;28;20052;-59
2022/02/28 10:48:21;;;;;;;11.60;3.75;;;;;;;;;;5068224;28;20048;-59
2022/02/28 10:50:48;;;;;;;8.90;3.83;;;;;;;;;;5063261;28;20041;-54
2022/02/28 10:53:18;;;;;;;11.63;2.97;;;;;;;;;;5082365;28;20052;-58
2022/02/28 10:55:48;;;;;;;7.25;3.03;;;;;;;;;;5079733;28;20124;-56
2022/02/28 10:58:15;;;;;;;6.00;2.40;;;;;;;;;;5088763;28;20167;-57
2022/02/28 11:00:52;;;;;;;9.43;3.40;;;;;;;;;;5068426;28;20036;-60
2022/02/28 11:03:19;;;;;;;6.68;2.53;;;;;;;;;;5067912;28;20061;-54
2022/02/28 11:05:53;;;;;;;7.28;2.58;;;;;;;;;;5042259;28;20106;-52
2022/02/28 11:08:20;;;;;;;9.43;3.15;;;;;;;;;;5053702;28;20087;-53
2022/02/28 11:10:48;;;;;;;7.53;2.53;;;;;;;;;;5037272;28;20481;-57
2022/02/28 11:13:15;;;;;;;8.63;3.45;;;;;;;;;;5068128;28;20068;-57
2022/02/28 11:15:42;;;;;;;5.50;2.55;;;;;;;;;;5056144;28;20060;-55
2022/02/28 11:18:10;;;;;;;6.95;2.88;;;;;;;;;;5068150;28;20052;-54
2022/02/28 11:20:36;;;;;;;6.55;2.58;;;;;;;;;;5062166;28;20063;-58
2022/02/28 11:23:04;;;;;;;5.55;2.58;;;;;;;;;;5051644;28;20056;-56
2022/02/28 11:25:31;;;;;;;9.05;3.13;;;;;;;;;;5045600;28;20052;-56
2022/02/28 11:28:00;;;;;;;8.05;3.25;;;;;;;;;;5052046;28;20052;-59
2022/02/28 11:30:28;;;;;;;9.93;3.75;;;;;;;;;;5046902;28;20056;-54
2022/02/28 11:32:56;;;;;;;7.22;2.75;;;;;;;;;;5069069;28;20079;-55
2022/02/28 11:35:40;;;;;;;6.75;2.63;;;;;;;;;;5068149;28;20055;-52
2022/02/28 11:38:11;;;;;;;5.65;2.58;;;;;;;;;;5031850;28;20041;-50
2022/02/28 11:40:38;;;;;;;4.45;2.13;;;;;;;;;;5029745;28;20150;-54
2022/02/28 11:43:16;;;;;;;8.05;2.78;;;;;;;;;;5050145;28;20135;-57
2022/02/28 11:45:50;;;;;;;5.50;2.30;;;;;;;;;;5052070;28;20052;-55
2022/02/28 11:48:26;;;;;;;8.88;3.78;;;;;;;;;;5050276;28;20149;-56
2022/02/28 11:50:53;;;;;;;8.35;3.15;;;;;;;;;;5051450;28;20056;-52
2022/02/28 11:53:41;;;;;;;7.72;2.63;;;;;;;;;;5045868;28;20118;-56
2022/02/28 11:56:28;;;;;;;8.43;3.00;;;;;;;;;;5047078;28;20056;-56
2022/02/28 11:58:58;;;;;;;7.40;2.88;;;;;;;;;;5050988;28;20139;-52
2022/02/28 12:01:29;;;;;;;11.45;5.05;;;;;;;;;;5048376;28;20053;-58
2022/02/28 12:04:11;;;;;;;6.95;3.28;;;;;;;;;;5058538;28;20045;-61
2022/02/28 12:06:55;;;;;;;5.57;2.42;;;;;;;;;;5083214;28;20078;-59
2022/02/28 12:09:46;;;;;;;9.52;3.25;;;;;;;;;;5066902;28;20056;-57
2022/02/28 12:12:20;;;;;;;11.13;3.95;;;;;;;;;;5050088;28;20080;-55
2022/02/28 12:15:09;;;;;;;7.80;3.28;;;;;;;;;;5087469;28;20222;-56
2022/02/28 12:17:56;;;;;;;13.10;4.28;;;;;;;;;;5070525;28;20047;-56
2022/02/28 12:20:26;;;;;;;10.00;3.90;;;;;;;;;;5068990;28;20060;-58
2022/02/28 12:23:09;;;;;;;8.32;3.05;;;;;;;;;;5066314;28;20093;-59
2022/02/28 12:25:36;;;;;;;6.63;3.00;;;;;;;;;;5086712;28;20071;-56
2022/02/28 12:28:14;;;;;;;9.43;3.92;;;;;;;;;;5080477;28;20135;-57
2022/02/28 12:30:48;;;;;;;10.50;2.90;;;;;;;;;;5086669;28;20066;-57
2022/02/28 12:33:16;;;;;;;11.50;3.67;;;;;;;;;;5096484;28;20138;-60
2022/02/28 12:35:55;;;;;;;9.93;4.57;;;;;;;;;;5085989;28;20051;-60
2022/02/28 12:38:21;;;;;;;;;;;;;;;;;;5097889;28;20060;-60
2022/02/28 12:40:48;;;;;;;9.77;3.40;;;;;;;;;;5103895;28;19959;-57
2022/02/28 12:43:18;;;;;;;7.00;3.15;;;;;;;;;;5080205;28;20134;-58
2022/02/28 12:45:47;;;;;;;6.97;2.63;;;;;;;;;;5072537;28;20044;-61
2022/02/28 12:48:14;;;;;;;11.32;3.85;;;;;;;;;;5065797;28;20151;-59
2022/02/28 12:50:45;;;;;;;9.18;3.15;;;;;;;;;;5085010;28;20413;-59
2022/02/28 12:53:14;;;;;;;9.55;3.65;;;;;;;;;;5086154;28;20554;-59
2022/02/28 12:55:49;;;;;;;10.55;3.63;;;;;;;;;;5080533;28;20071;-60
2022/02/28 12:58:20;;;;;;;11.55;4.07;;;;;;;;;;5102748;28;20056;-58
2022/02/28 13:00:46;;;;;;;6.68;2.53;;;;;;;;;;5076862;28;20052;-55
2022/02/28 13:03:13;;;;;;;8.13;3.10;;;;;;;;;;5086813;28;20056;-60
2022/02/28 13:05:41;;;;;;;10.13;3.75;;;;;;;;;;5080191;28;20052;-54
2022/02/28 13:08:07;;;;;;;9.10;3.77;;;;;;;;;;5086226;28;20134;-55
2022/02/28 13:10:37;;;;;;;11.45;3.97;;;;;;;;;;5080528;28;20055;-60
2022/02/28 13:13:05;;;;;;;10.20;3.97;;;;;;;;;;5085862;28;20052;-59
2022/02/28 13:15:32;;;;;;;15.05;4.10;;;;;;;;;;5079496;28;20147;-57
2022/02/28 13:17:58;;;;;;;10.43;3.90;;;;;;;;;;5085584;28;20055;-59
2022/02/28 13:20:25;;;;;;;11.77;4.47;;;;;;;;;;5079696;28;20265;-59
2022/02/28 13:22:52;;;;;;;10.10;4.32;;;;;;;;;;5086069;28;20063;-59
2022/02/28 13:25:18;;;;;;;8.27;3.55;;;;;;;;;;5079262;28;20047;-53
2022/02/28 13:27:47;;;;;;;6.45;2.20;;;;;;;;;;5087014;28;20109;-58
2022/02/28 13:30:13;;;;;;;8.23;3.22;;;;;;;;;;5084716;28;20048;-57
2022/02/28 13:32:40;;;;;;;13.52;4.03;;;;;;;;;;5090538;28;20097;-59
2022/02/28 13:35:06;;;;;;;11.43;3.80;;;;;;;;;;5086629;28;20536;-62
2022/02/28 13:37:33;;;;;;;9.93;3.92;;;;;;;;;;5089227;28;20596;-56
2022/02/28 13:40:00;;;;;;;12.43;4.43;;;;;;;;;;5091887;28;20048;-60
2022/02/28 13:42:31;;;;;;;8.82;3.53;;;;;;;;;;5079039;28;20059;-58
2022/02/28 13:45:06;;;;;;;13.30;4.47;;;;;;;;;;5106007;28;20044;-57
2022/02/28 13:47:35;;;;;;;10.30;3.92;;;;;;;;;;5070107;28;20076;-58
2022/02/28 13:50:04;;;;;;;9.73;3.85;;;;;;;;;;5073354;28;20036;-61
2022/02/28 13:52:31;;;;;;;11.65;3.65;;;;;;;;;;5067533;28;20156;-59
2022/02/28 13:54:59;;;;;;;9.47;4.17;;;;;;;;;;5073349;28;20135;-58
2022/02/28 13:57:26;;;;;;;9.63;3.35;;;;;;;;;;5067005;28;20071;-56
2022/02/28 14:02:50;;;;;;;11.57;4.25;;;;;;;;;;5061505;27;20482;-59
2022/02/28 14:05:16;;;;;;;;;;;;;;;;;;5043906;28;20072;-61
2022/02/28 14:07:43;;;;;;;8.80;3.72;;;;;;;;;;5037014;28;19931;-63
2022/02/28 14:10:09;;;;;;;9.65;3.75;;;;;;;;;;5034825;28;20518;-61
2022/02/28 14:12:38;;;;;;;8.65;3.67;;;;;;;;;;5037778;28;20138;-61
2022/02/28 14:15:06;;;;;;;11.50;4.00;;;;;;;;;;5043600;28;20111;-62
2022/02/28 14:17:33;;;;;;;10.32;4.45;;;;;;;;;;5038082;28;20052;-59
2022/02/28 14:20:12;;;;;;;8.65;3.80;;;;;;;;;;5043314;28;20069;-62
2022/02/28 14:22:38;;;;;;;10.25;3.50;;;;;;;;;;5038004;28;20144;-60
2022/02/28 14:25:12;;;;;;;9.20;4.00;;;;;;;;;;5044121;28;20056;-58
2022/02/28 14:27:43;;;;;;;7.38;3.38;;;;;;;;;;5038623;28;20428;-58
2022/02/28 14:30:10;;;;;;;9.57;3.92;;;;;;;;;;5044883;28;20051;-57
2022/02/28 14:32:36;;;;;;;9.00;4.10;;;;;;;;;;5038156;28;20519;-57
2022/02/28 14:35:06;;;;;;;7.75;3.15;;;;;;;;;;5057757;28;20141;-58
2022/02/28 14:37:33;;;;;;;8.32;3.72;;;;;;;;;;5057140;28;20059;-61
2022/02/28 14:40:00;;;;;;;8.82;3.58;;;;;;;;;;5062327;28;20472;-57
2022/02/28 14:42:37;;;;;;;9.20;4.28;;;;;;;;;;5061871;28;20045;-59
2022/02/28 14:45:04;;;;;;;9.25;3.85;;;;;;;;;;5053789;28;20068;-57
2022/02/28 14:47:30;;;;;;;12.20;3.85;;;;;;;;;;5062357;28;20079;-56
2022/02/28 14:49:58;;;;;;;9.82;3.67;;;;;;;;;;5039143;28;20064;-56
2022/02/28 14:52:26;;;;;;;9.32;3.97;;;;;;;;;;5060529;28;20131;-56
2022/02/28 14:54:52;;;;;;;10.03;3.67;;;;;;;;;;5056333;28;20053;-59